Time;durP1;ratioP1;P1;durP2;ratioP2;P2;SDS_P1;SDS_P2;PMS_P1;PMS_P2;Temp;Humidity;BMP_temperature;BMP_pressure;BME280_temperature;BME280_humidity;BME280_pressure;Samples;Min_cycle;Max_cycle;Signal;HPM_P1;HPM_P2
2022/10/26 00:01:19;;;;;;;;;;;14.90;93.80;;;;;;5035255;28;19932;-70
2022/10/26 00:03:47;;;;;;;;;;;14.90;93.90;;;;;;5043342;28;19991;-70
2022/10/26 00:06:14;;;;;;;;;;;14.90;93.90;;;;;;5036865;28;19933;-70
2022/10/26 00:08:41;;;;;;;;;;;14.80;93.90;;;;;;5041083;28;20389;-71
2022/10/26 00:11:08;;;;;;;;;;;14.90;93.90;;;;;;5042072;28;19936;-69
2022/10/26 00:13:35;;;;;;;;;;;14.90;94.00;;;;;;5039982;28;19939;-71
2022/10/26 00:16:02;;;;;;;;;;;14.90;94.00;;;;;;5040356;28;19935;-70
2022/10/26 00:18:28;;;;;;;;;;;14.80;93.90;;;;;;5042277;28;19935;-70
2022/10/26 00:21:02;;;;;;;;;;;14.80;94.00;;;;;;5041296;28;19935;-70
2022/10/26 00:23:28;;;;;;;;;;;14.80;94.00;;;;;;5043710;28;19975;-70
2022/10/26 00:25:55;;;;;;;;;;;14.80;94.00;;;;;;5038993;28;20381;-70
2022/10/26 00:28:22;;;;;;;;;;;14.80;94.00;;;;;;5041052;28;19929;-70
2022/10/26 00:30:48;;;;;;;;;;;14.80;94.00;;;;;;5041080;28;19929;-70
2022/10/26 00:33:15;;;;;;;;;;;14.80;94.00;;;;;;5043403;28;19936;-72
2022/10/26 00:35:42;;;;;;;;;;;14.80;94.10;;;;;;5036316;28;20396;-70
2022/10/26 00:38:10;;;;;;;;;;;14.80;94.10;;;;;;5045644;28;19932;-70
2022/10/26 00:40:36;;;;;;;;;;;14.80;94.10;;;;;;5045008;28;19936;-70
2022/10/26 00:43:03;;;;;;;;;;;14.80;94.10;;;;;;5042826;28;19929;-70
2022/10/26 00:45:30;;;;;;;;;;;14.80;94.10;;;;;;5044356;28;21052;-71
2022/10/26 00:47:58;;;;;;;;;;;14.80;94.10;;;;;;5038298;28;19939;-72
2022/10/26 00:50:26;;;;;;;;;;;14.70;94.10;;;;;;5042009;28;19940;-68
2022/10/26 00:52:53;;;;;;;;;;;14.70;94.10;;;;;;5038733;28;20012;-70
2022/10/26 00:55:22;;;;;;;;;;;14.80;94.20;;;;;;5042042;28;19932;-70
2022/10/26 00:57:49;;;;;;;;;;;14.80;94.20;;;;;;5040496;28;19928;-72
2022/10/26 01:00:16;;;;;;;;;;;14.80;94.20;;;;;;5043198;28;19968;-69
2022/10/26 01:02:43;;;;;;;;;;;14.80;94.20;;;;;;5040116;28;19944;-70
2022/10/26 01:05:11;;;;;;;;;;;14.70;94.20;;;;;;5041686;28;19929;-72
2022/10/26 01:07:37;;;;;;;;;;;14.70;94.20;;;;;;5043440;28;19932;-69
2022/10/26 01:10:04;;;;;;;;;;;14.70;94.20;;;;;;5045116;28;19929;-70
2022/10/26 01:12:32;;;;;;;;;;;14.70;94.30;;;;;;5042723;28;19939;-70
2022/10/26 01:14:59;;;;;;;;;;;14.70;94.30;;;;;;5046646;28;19936;-72
2022/10/26 01:17:32;;;;;;;;;;;14.70;94.30;;;;;;5037253;28;20642;-71
2022/10/26 01:20:18;;;;;;;;;;;14.70;94.30;;;;;;5042559;28;19935;-71
2022/10/26 01:22:47;;;;;;;;;;;14.70;94.30;;;;;;5036716;28;20398;-70
2022/10/26 01:25:19;;;;;;;;;;;14.70;94.30;;;;;;5043957;28;19936;-70
2022/10/26 01:27:48;;;;;;;;;;;14.70;94.30;;;;;;5041571;28;19932;-70
2022/10/26 01:30:23;;;;;;;;;;;14.70;94.40;;;;;;5045746;28;19937;-70
2022/10/26 01:33:01;;;;;;;;;;;14.70;94.40;;;;;;5039511;28;19929;-71
2022/10/26 01:35:29;;;;;;;;;;;14.70;94.40;;;;;;5040611;28;19929;-70
2022/10/26 01:37:58;;;;;;;;;;;14.70;94.40;;;;;;5045738;28;19932;-70
2022/10/26 01:40:27;;;;;;;;;;;14.60;94.40;;;;;;5045535;28;20348;-70
2022/10/26 01:42:55;;;;;;;;;;;14.60;94.40;;;;;;5036976;28;19936;-72
2022/10/26 01:45:24;;;;;;;;;;;14.70;94.40;;;;;;5042594;28;19936;-71
2022/10/26 01:47:52;;;;;;;;;;;14.60;94.40;;;;;;5044045;28;19929;-70
2022/10/26 01:50:19;;;;;;;;;;;14.70;94.50;;;;;;5037306;28;20416;-72
2022/10/26 01:52:48;;;;;;;;;;;14.60;94.50;;;;;;5042302;28;20454;-70
2022/10/26 01:55:33;;;;;;;;;;;14.60;94.50;;;;;;5039008;28;19940;-70
2022/10/26 01:58:05;;;;;;;;;;;14.60;94.90;;;;;;5039928;28;20601;-70
2022/10/26 02:00:36;;;;;;;;;;;14.60;94.50;;;;;;5040370;28;20025;-69
2022/10/26 02:03:07;;;;;;;;;;;14.60;94.60;;;;;;5045899;28;19932;-71
2022/10/26 02:05:42;;;;;;;;;;;14.60;94.60;;;;;;5039524;28;20036;-70
2022/10/26 02:08:17;;;;;;;;;;;14.60;94.60;;;;;;5044855;28;19936;-70
2022/10/26 02:10:46;;;;;;;;;;;14.60;94.60;;;;;;5043478;28;19929;-71
2022/10/26 02:13:16;;;;;;;;;;;14.60;94.60;;;;;;5044983;28;20318;-70
2022/10/26 02:15:48;;;;;;;;;;;14.60;94.70;;;;;;5038855;28;19929;-70
2022/10/26 02:18:18;;;;;;;;;;;14.60;94.70;;;;;;5038577;28;20416;-70
2022/10/26 02:20:48;;;;;;;;;;;14.60;94.70;;;;;;5040250;28;19936;-71
2022/10/26 02:23:15;;;;;;;;;;;14.60;94.70;;;;;;5041030;28;19929;-70
2022/10/26 02:25:44;;;;;;;;;;;14.60;94.80;;;;;;5041524;28;19933;-70
2022/10/26 02:28:13;;;;;;;;;;;14.50;94.80;;;;;;5034256;28;20092;-71
2022/10/26 02:30:40;;;;;;;;;;;14.50;94.80;;;;;;5044997;28;19932;-70
2022/10/26 02:33:10;;;;;;;;;;;14.60;94.80;;;;;;5046175;28;19936;-72
2022/10/26 02:35:38;;;;;;;;;;;14.60;94.80;;;;;;5040501;28;19932;-72
2022/10/26 02:38:07;;;;;;;;;;;14.50;94.80;;;;;;5045497;28;20483;-70
2022/10/26 02:40:34;;;;;;;;;;;14.60;94.90;;;;;;5044267;28;19935;-70
2022/10/26 02:43:04;;;;;;;;;;;14.50;94.80;;;;;;5039018;28;19929;-71
2022/10/26 02:45:33;;;;;;;;;;;14.50;94.90;;;;;;5039091;28;20578;-70
2022/10/26 02:47:59;;;;;;;;;;;14.50;94.90;;;;;;5043416;28;19929;-70
2022/10/26 02:50:30;;;;;;;;;;;14.50;94.90;;;;;;5041014;28;20564;-70
2022/10/26 02:53:00;;;;;;;;;;;14.50;94.90;;;;;;5044050;28;19936;-70
2022/10/26 02:55:28;;;;;;;;;;;14.50;94.90;;;;;;5041529;28;19954;-70
2022/10/26 02:57:57;;;;;;;;;;;14.50;94.90;;;;;;5038661;28;19940;-70
2022/10/26 03:00:24;;;;;;;;;;;14.50;94.90;;;;;;5037981;28;19929;-70
2022/10/26 03:02:52;;;;;;;;;;;14.50;94.90;;;;;;5044147;28;19936;-73
2022/10/26 03:05:20;;;;;;;;;;;14.50;94.90;;;;;;5039310;28;19928;-73
2022/10/26 03:07:48;;;;;;;;;;;14.50;95.00;;;;;;5042207;28;19932;-70
2022/10/26 03:10:15;;;;;;;;;;;14.50;95.00;;;;;;5041511;28;19935;-70
2022/10/26 03:12:41;;;;;;;;;;;14.50;95.00;;;;;;5039384;28;20360;-73
2022/10/26 03:15:08;;;;;;;;;;;14.50;95.00;;;;;;5038849;28;20376;-70
2022/10/26 03:17:35;;;;;;;;;;;14.50;95.10;;;;;;5043191;28;19929;-71
2022/10/26 03:20:01;;;;;;;;;;;14.50;95.10;;;;;;5040353;28;19933;-70
2022/10/26 03:22:28;;;;;;;;;;;14.50;95.10;;;;;;5040243;28;20703;-70
2022/10/26 03:24:56;;;;;;;;;;;14.50;95.10;;;;;;5038636;28;20273;-70
2022/10/26 03:27:22;;;;;;;;;;;14.40;95.10;;;;;;5039875;28;19951;-70
2022/10/26 03:29:49;;;;;;;;;;;14.50;95.10;;;;;;5044743;28;20023;-70
2022/10/26 03:32:16;;;;;;;;;;;14.40;95.10;;;;;;5043395;28;19936;-70
2022/10/26 03:34:42;;;;;;;;;;;14.40;95.10;;;;;;5043646;28;19959;-72
2022/10/26 03:37:09;;;;;;;;;;;14.40;95.10;;;;;;5037286;28;19932;-72
2022/10/26 03:39:35;;;;;;;;;;;14.50;95.20;;;;;;5043343;28;19929;-69
2022/10/26 03:42:03;;;;;;;;;;;14.40;95.10;;;;;;5039276;28;19932;-70
2022/10/26 03:44:30;;;;;;;;;;;14.40;95.20;;;;;;5040541;28;19929;-69
2022/10/26 03:46:56;;;;;;;;;;;14.40;95.20;;;;;;5041142;28;19947;-70
2022/10/26 03:49:23;;;;;;;;;;;14.40;95.20;;;;;;5044470;28;19935;-70
2022/10/26 03:51:50;;;;;;;;;;;14.40;95.20;;;;;;5041495;28;19928;-72
2022/10/26 03:54:17;;;;;;;;;;;14.40;95.20;;;;;;5040574;28;20397;-70
2022/10/26 03:56:43;;;;;;;;;;;14.40;95.20;;;;;;5037634;28;20392;-69
2022/10/26 03:59:11;;;;;;;;;;;14.40;95.30;;;;;;5042546;28;20476;-73
2022/10/26 04:01:38;;;;;;;;;;;14.40;95.30;;;;;;5041572;28;20649;-69
2022/10/26 04:04:05;;;;;;;;;;;14.40;95.30;;;;;;5040787;28;19929;-70
2022/10/26 04:06:32;;;;;;;;;;;14.40;95.30;;;;;;5040984;28;19932;-70
2022/10/26 04:09:01;;;;;;;;;;;14.40;95.30;;;;;;5039782;28;19933;-73
2022/10/26 04:11:27;;;;;;;;;;;14.40;95.30;;;;;;5043494;28;20313;-70
2022/10/26 04:13:55;;;;;;;;;;;14.40;95.30;;;;;;5045522;28;19940;-68
2022/10/26 04:16:23;;;;;;;;;;;14.40;95.30;;;;;;5038852;28;20382;-72
2022/10/26 04:18:49;;;;;;;;;;;14.40;95.30;;;;;;5046088;28;19936;-70
2022/10/26 04:21:16;;;;;;;;;;;14.30;95.30;;;;;;5042715;28;19932;-71
2022/10/26 04:23:42;;;;;;;;;;;14.30;95.30;;;;;;5040724;28;19933;-70
2022/10/26 04:26:09;;;;;;;;;;;14.30;95.30;;;;;;5043704;28;19924;-70
2022/10/26 04:28:35;;;;;;;;;;;14.30;95.30;;;;;;5042417;28;19948;-70
2022/10/26 04:31:02;;;;;;;;;;;14.30;95.40;;;;;;5046549;28;19939;-70
2022/10/26 04:33:30;;;;;;;;;;;14.30;95.70;;;;;;5044512;28;19937;-71
2022/10/26 04:35:58;;;;;;;;;;;14.30;95.40;;;;;;5040656;28;19936;-71
2022/10/26 04:38:25;;;;;;;;;;;14.30;95.40;;;;;;5045659;28;19929;-71
2022/10/26 04:40:51;;;;;;;;;;;14.30;95.40;;;;;;5045487;28;20002;-70
2022/10/26 04:43:18;;;;;;;;;;;14.30;95.40;;;;;;5043342;28;19932;-70
2022/10/26 04:45:44;;;;;;;;;;;14.20;95.40;;;;;;5045629;28;20376;-70
2022/10/26 04:48:12;;;;;;;;;;;14.20;95.40;;;;;;5044080;28;20277;-70
2022/10/26 04:50:40;;;;;;;;;;;14.30;95.50;;;;;;5042056;28;19929;-70
2022/10/26 04:53:08;;;;;;;;;;;14.20;95.40;;;;;;5044541;28;19936;-69
2022/10/26 04:55:34;;;;;;;;;;;14.30;95.50;;;;;;5045662;28;19932;-68
2022/10/26 04:58:01;;;;;;;;;;;14.20;95.50;;;;;;5043759;28;19929;-70
2022/10/26 05:00:28;;;;;;;;;;;14.20;95.80;;;;;;5041956;28;19929;-70
2022/10/26 05:02:58;;;;;;;;;;;14.10;96.00;;;;;;5041127;28;19929;-71
2022/10/26 05:05:25;;;;;;;;;;;14.10;96.10;;;;;;5047111;28;19928;-73
2022/10/26 05:07:55;;;;;;;;;;;14.10;96.10;;;;;;5044986;28;20332;-70
2022/10/26 05:10:22;;;;;;;;;;;14.10;96.10;;;;;;5041814;28;19933;-70
2022/10/26 05:12:50;;;;;;;;;;;14.10;96.10;;;;;;5039576;28;19935;-70
2022/10/26 05:15:17;;;;;;;;;;;14.10;96.10;;;;;;5036422;28;19951;-71
2022/10/26 05:17:43;;;;;;;;;;;14.10;96.00;;;;;;5037975;28;19929;-71
2022/10/26 05:20:12;;;;;;;;;;;14.10;96.00;;;;;;5042264;28;20411;-72
2022/10/26 05:22:39;;;;;;;;;;;14.10;96.00;;;;;;5046745;28;19936;-70
2022/10/26 05:25:07;;;;;;;;;;;14.10;96.00;;;;;;5044214;28;19936;-70
2022/10/26 05:27:34;;;;;;;;;;;14.10;96.00;;;;;;5034802;28;19929;-72
2022/10/26 05:30:00;;;;;;;;;;;14.10;96.20;;;;;;5046634;28;19933;-70
2022/10/26 05:32:27;;;;;;;;;;;14.10;96.00;;;;;;5039828;28;19940;-71
2022/10/26 05:34:53;;;;;;;;;;;14.10;96.00;;;;;;5042060;28;19935;-70
2022/10/26 05:37:20;;;;;;;;;;;14.10;96.00;;;;;;5048717;28;19936;-71
2022/10/26 05:39:46;;;;;;;;;;;14.00;95.90;;;;;;5041665;28;19929;-70
2022/10/26 05:42:14;;;;;;;;;;;14.10;96.00;;;;;;5046146;28;19928;-71
2022/10/26 05:44:41;;;;;;;;;;;14.00;95.90;;;;;;5042908;28;20413;-74
2022/10/26 05:47:07;;;;;;;;;;;14.00;95.90;;;;;;5036846;28;20536;-70
2022/10/26 05:49:34;;;;;;;;;;;14.10;95.90;;;;;;5044605;28;20402;-70
2022/10/26 05:52:01;;;;;;;;;;;14.00;95.90;;;;;;5043704;28;20277;-70
2022/10/26 05:54:27;;;;;;;;;;;14.10;96.00;;;;;;5046263;28;19932;-70
2022/10/26 05:56:54;;;;;;;;;;;14.10;96.00;;;;;;5040571;28;19925;-74
2022/10/26 05:59:22;;;;;;;;;;;14.10;96.00;;;;;;5043176;28;19925;-71
2022/10/26 06:01:56;;;;;;;;;;;14.10;96.00;;;;;;5038916;28;19928;-71
2022/10/26 06:04:30;;;;;;;;;;;14.00;95.90;;;;;;5038878;28;19929;-72
2022/10/26 06:06:57;;;;;;;;;;;14.00;95.90;;;;;;5040720;28;19925;-71
2022/10/26 06:09:24;;;;;;;;;;;14.00;95.90;;;;;;5045707;28;20309;-71
2022/10/26 06:11:50;;;;;;;;;;;14.00;96.00;;;;;;5043190;28;20412;-70
2022/10/26 06:14:17;;;;;;;;;;;14.00;96.00;;;;;;5043353;28;19929;-74
2022/10/26 06:16:56;;;;;;;;;;;14.00;96.00;;;;;;5044196;28;19929;-70
2022/10/26 06:19:28;;;;;;;;;;;14.00;96.00;;;;;;5041492;28;20330;-71
2022/10/26 06:22:00;;;;;;;;;;;14.00;96.00;;;;;;5045158;28;19936;-70
2022/10/26 06:24:29;;;;;;;;;;;14.00;96.00;;;;;;5041759;28;19932;-70
2022/10/26 06:27:00;;;;;;;;;;;14.00;96.00;;;;;;5045321;28;19933;-72
2022/10/26 06:29:32;;;;;;;;;;;14.00;96.10;;;;;;5041213;28;20387;-71
2022/10/26 06:32:00;;;;;;;;;;;14.00;96.10;;;;;;5041508;28;19944;-71
2022/10/26 06:34:29;;;;;;;;;;;14.00;96.10;;;;;;5044804;28;19933;-70
2022/10/26 06:36:57;;;;;;;;;;;14.00;96.10;;;;;;5042993;28;19933;-70
2022/10/26 06:39:25;;;;;;;;;;;14.00;96.10;;;;;;5044757;28;19936;-70
2022/10/26 06:41:52;;;;;;;;;;;14.00;96.10;;;;;;5039545;28;19951;-71
2022/10/26 06:44:21;;;;;;;;;;;14.00;96.20;;;;;;5042120;28;19929;-71
2022/10/26 06:46:48;;;;;;;;;;;14.00;96.10;;;;;;5043630;28;19928;-71
2022/10/26 06:49:19;;;;;;;;;;;14.00;96.10;;;;;;5043304;28;19932;-71
2022/10/26 06:51:49;;;;;;;;;;;14.00;96.10;;;;;;5042140;28;19968;-71
2022/10/26 06:54:18;;;;;;;;;;;13.90;96.10;;;;;;5045728;28;20308;-74
2022/10/26 06:56:45;;;;;;;;;;;14.00;96.10;;;;;;5040947;28;19936;-71
2022/10/26 06:59:16;;;;;;;;;;;13.90;96.10;;;;;;5044161;28;19929;-72
2022/10/26 07:01:43;;;;;;;;;;;14.00;96.10;;;;;;5041855;28;19936;-71
2022/10/26 07:04:09;;;;;;;;;;;14.00;96.10;;;;;;5040864;28;19936;-70
2022/10/26 07:06:37;;;;;;;;;;;14.00;96.10;;;;;;5039678;28;19933;-71
2022/10/26 07:09:04;;;;;;;;;;;14.00;96.10;;;;;;5041907;28;19929;-72
2022/10/26 07:11:30;;;;;;;;;;;14.00;96.20;;;;;;5042761;28;19933;-70
2022/10/26 07:13:57;;;;;;;;;;;14.00;96.20;;;;;;5038974;28;19928;-71
2022/10/26 07:16:23;;;;;;;;;;;14.00;96.20;;;;;;5036357;28;19929;-71
2022/10/26 07:18:50;;;;;;;;;;;14.00;96.20;;;;;;5042771;28;19935;-72
2022/10/26 07:21:16;;;;;;;;;;;14.00;96.20;;;;;;5035758;28;19935;-70
2022/10/26 07:23:44;;;;;;;;;;;13.90;96.20;;;;;;5044636;28;19936;-71
2022/10/26 07:26:11;;;;;;;;;;;14.00;96.20;;;;;;5041338;28;19928;-71
2022/10/26 07:28:37;;;;;;;;;;;14.00;96.20;;;;;;5040851;28;19929;-70
2022/10/26 07:31:05;;;;;;;;;;;14.00;96.20;;;;;;5039627;28;20336;-72
2022/10/26 07:33:32;;;;;;;;;;;14.00;96.20;;;;;;5042714;28;19935;-70
2022/10/26 07:35:58;;;;;;;;;;;14.00;96.30;;;;;;5042047;28;19933;-72
2022/10/26 07:38:25;;;;;;;;;;;14.00;96.30;;;;;;5043328;28;20385;-71
2022/10/26 07:40:54;;;;;;;;;;;14.00;96.30;;;;;;5041442;28;20448;-70
2022/10/26 07:43:20;;;;;;;;;;;14.00;96.30;;;;;;5039810;28;20023;-72
2022/10/26 07:45:48;;;;;;;;;;;14.00;96.30;;;;;;5042813;28;19963;-70
2022/10/26 07:48:15;;;;;;;;;;;14.00;96.60;;;;;;5041797;28;19929;-73
2022/10/26 07:50:42;;;;;;;;;;;14.00;96.30;;;;;;5041272;28;19929;-73
2022/10/26 07:53:08;;;;;;;;;;;14.00;96.30;;;;;;5044619;28;20724;-71
2022/10/26 07:55:35;;;;;;;;;;;14.00;96.20;;;;;;5040931;28;19929;-69
2022/10/26 07:58:03;;;;;;;;;;;14.00;96.20;;;;;;5039388;28;19936;-71
2022/10/26 08:00:29;;;;;;;;;;;14.00;96.20;;;;;;5039335;28;20375;-74
2022/10/26 08:02:56;;;;;;;;;;;14.00;96.20;;;;;;5042171;28;20654;-72
2022/10/26 08:05:23;;;;;;;;;;;14.00;96.20;;;;;;5039915;28;19933;-71
2022/10/26 08:07:49;;;;;;;;;;;14.00;96.20;;;;;;5041096;28;19955;-70
2022/10/26 08:10:16;;;;;;;;;;;14.00;96.20;;;;;;5037425;28;19933;-71
2022/10/26 08:12:43;;;;;;;;;;;14.00;96.20;;;;;;5036471;28;20557;-71
2022/10/26 08:15:11;;;;;;;;;;;14.10;96.30;;;;;;5042782;28;19936;-73
2022/10/26 08:17:37;;;;;;;;;;;14.10;96.30;;;;;;5041422;28;19940;-72
2022/10/26 08:20:04;;;;;;;;;;;14.10;96.30;;;;;;5038900;28;19936;-71
2022/10/26 08:22:31;;;;;;;;;;;14.10;96.40;;;;;;5042750;28;19928;-71
2022/10/26 08:24:58;;;;;;;;;;;14.10;96.40;;;;;;5043067;28;19940;-72
2022/10/26 08:27:24;;;;;;;;;;;14.10;96.30;;;;;;5042051;28;20395;-71
2022/10/26 08:29:51;;;;;;;;;;;14.10;96.30;;;;;;5041747;28;19928;-70
2022/10/26 08:32:19;;;;;;;;;;;14.10;96.30;;;;;;5042205;28;19925;-71
2022/10/26 08:34:45;;;;;;;;;;;14.10;96.20;;;;;;5044005;28;20538;-71
2022/10/26 08:37:12;;;;;;;;;;;14.10;96.20;;;;;;5037118;28;20335;-71
2022/10/26 08:39:38;;;;;;;;;;;14.10;96.20;;;;;;5042847;28;19929;-72
2022/10/26 08:42:07;;;;;;;;;;;14.20;96.20;;;;;;5035485;28;19936;-71
2022/10/26 08:44:36;;;;;;;;;;;14.10;96.20;;;;;;5038146;28;19935;-71
2022/10/26 08:47:06;;;;;;;;;;;14.10;96.20;;;;;;5039319;28;19928;-70
2022/10/26 08:49:38;;;;;;;;;;;14.20;96.20;;;;;;5036951;28;19936;-69
2022/10/26 08:52:05;;;;;;;;;;;14.20;96.20;;;;;;5042237;28;19925;-71
2022/10/26 08:54:36;;;;;;;;;;;14.20;96.10;;;;;;5038082;28;20401;-71
2022/10/26 08:57:04;;;;;;;;;;;14.20;96.10;;;;;;5038074;28;19929;-71
2022/10/26 08:59:34;;;;;;;;;;;14.20;96.00;;;;;;5040733;28;19928;-72
2022/10/26 09:02:01;;;;;;;;;;;14.20;95.90;;;;;;5046311;28;19932;-70
2022/10/26 09:04:29;;;;;;;;;;;14.30;95.90;;;;;;5043140;28;20401;-71
2022/10/26 09:07:02;;;;;;;;;;;14.30;95.90;;;;;;5043924;28;19928;-70
2022/10/26 09:09:34;;;;;;;;;;;14.30;95.80;;;;;;5046433;28;19928;-71
2022/10/26 09:12:06;;;;;;;;;;;14.30;95.80;;;;;;5040930;28;19940;-72
2022/10/26 09:14:39;;;;;;;;;;;14.30;95.80;;;;;;5047905;28;19940;-70
2022/10/26 09:17:10;;;;;;;;;;;14.30;95.90;;;;;;5042355;28;19928;-71
2022/10/26 09:19:49;;;;;;;;;;;14.40;96.10;;;;;;5045961;28;19929;-71
2022/10/26 09:22:21;;;;;;;;;;;14.40;96.10;;;;;;5044137;28;19929;-72
2022/10/26 09:24:51;;;;;;;;;;;14.40;96.20;;;;;;5045467;28;20701;-71
2022/10/26 09:27:21;;;;;;;;;;;14.40;96.20;;;;;;5042243;28;19928;-70
2022/10/26 09:29:48;;;;;;;;;;;14.50;96.20;;;;;;5044658;28;19935;-71
2022/10/26 09:32:17;;;;;;;;;;;14.50;96.20;;;;;;5045621;28;19928;-70
2022/10/26 09:34:46;;;;;;;;;;;14.50;96.10;;;;;;5042275;28;20447;-70
2022/10/26 09:37:15;;;;;;;;;;;14.60;96.20;;;;;;5038281;28;19935;-71
2022/10/26 09:39:46;;;;;;;;;;;14.60;96.20;;;;;;5040469;28;19929;-73
2022/10/26 09:42:16;;;;;;;;;;;14.70;96.00;;;;;;5038766;28;19928;-74
2022/10/26 09:44:44;;;;;;;;;;;14.70;95.90;;;;;;5044873;28;20130;-70
2022/10/26 09:47:14;;;;;;;;;;;14.80;95.80;;;;;;5041559;28;19929;-72
2022/10/26 09:49:44;;;;;;;;;;;14.90;95.90;;;;;;5035497;28;19929;-72
2022/10/26 09:52:10;;;;;;;;;;;15.00;95.80;;;;;;5040250;28;19931;-72
2022/10/26 09:54:37;;;;;;;;;;;15.00;95.60;;;;;;5040979;28;20321;-70
2022/10/26 09:57:05;;;;;;;;;;;15.10;95.50;;;;;;5042725;28;20191;-72
2022/10/26 09:59:34;;;;;;;;;;;15.20;95.30;;;;;;5042908;28;19929;-71
2022/10/26 10:02:01;;;;;;;;;;;15.30;95.20;;;;;;5043253;28;19936;-70
2022/10/26 10:04:32;;;;;;;;;;;15.40;95.00;;;;;;5043227;28;19935;-71
2022/10/26 10:07:12;;;;;;;;;;;15.40;94.90;;;;;;5042461;28;19929;-70
2022/10/26 10:09:39;;;;;;;;;;;15.50;94.80;;;;;;5042034;28;20485;-71
2022/10/26 10:12:18;;;;;;;;;;;15.60;94.80;;;;;;5038372;28;19936;-71
2022/10/26 10:14:55;;;;;;;;;;;15.70;94.70;;;;;;5046545;28;19933;-73
2022/10/26 10:17:22;;;;;;;;;;;15.70;94.40;;;;;;5043124;28;19975;-71
2022/10/26 10:19:49;;;;;;;;;;;15.80;94.40;;;;;;5045197;28;20341;-73
2022/10/26 10:22:21;;;;;;;;;;;15.90;94.30;;;;;;5043077;28;19928;-72
2022/10/26 10:24:53;;;;;;;;;;;16.00;94.20;;;;;;5043866;28;20331;-73
2022/10/26 10:27:22;;;;;;;;;;;16.10;94.00;;;;;;5035046;28;19932;-71
2022/10/26 10:29:49;;;;;;;;;;;16.20;93.90;;;;;;5045883;28;20297;-70
2022/10/26 10:32:17;;;;;;;;;;;16.30;93.70;;;;;;5044524;28;19932;-73
2022/10/26 10:34:43;;;;;;;;;;;16.30;93.60;;;;;;5045362;28;19952;-71
2022/10/26 10:37:19;;;;;;;;;;;16.40;93.50;;;;;;5037035;28;19928;-75
2022/10/26 10:39:46;;;;;;;;;;;16.50;93.30;;;;;;5042933;28;19928;-71
2022/10/26 10:42:18;;;;;;;;;;;16.50;93.20;;;;;;5042623;28;20047;-73
2022/10/26 10:44:47;;;;;;;;;;;16.70;93.10;;;;;;5039288;28;19929;-72
2022/10/26 10:47:19;;;;;;;;;;;16.70;92.90;;;;;;5042686;28;19929;-75
2022/10/26 10:49:50;;;;;;;;;;;16.80;92.90;;;;;;5043669;28;19929;-71
2022/10/26 10:52:22;;;;;;;;;;;16.80;92.80;;;;;;5042886;28;19937;-73
2022/10/26 10:54:50;;;;;;;;;;;16.90;92.60;;;;;;5041235;28;19929;-72
2022/10/26 10:57:22;;;;;;;;;;;17.00;92.50;;;;;;5036561;28;19928;-72
2022/10/26 10:59:57;;;;;;;;;;;17.00;92.60;;;;;;5041312;28;19936;-72
2022/10/26 11:02:34;;;;;;;;;;;17.00;92.40;;;;;;5035111;28;19929;-71
2022/10/26 11:05:06;;;;;;;;;;;17.00;92.30;;;;;;5039917;28;19936;-71
2022/10/26 11:07:36;;;;;;;;;;;17.10;92.50;;;;;;5036806;28;19955;-72
2022/10/26 11:10:03;;;;;;;;;;;17.10;92.50;;;;;;5041167;28;19951;-72
2022/10/26 11:12:31;;;;;;;;;;;17.10;92.70;;;;;;5038369;28;19929;-72
2022/10/26 11:15:02;;;;;;;;;;;17.00;92.80;;;;;;5044148;28;19932;-72
2022/10/26 11:17:30;;;;;;;;;;;17.00;92.80;;;;;;5042377;28;19929;-71
2022/10/26 11:19:58;;;;;;;;;;;17.00;92.70;;;;;;5038151;28;20556;-74
2022/10/26 11:22:26;;;;;;;;;;;17.10;92.60;;;;;;5041522;28;19929;-72
2022/10/26 11:24:56;;;;;;;;;;;17.10;92.50;;;;;;5042408;28;20388;-72
2022/10/26 11:27:26;;;;;;;;;;;17.10;92.60;;;;;;5040481;28;19929;-73
2022/10/26 11:29:54;;;;;;;;;;;17.10;92.60;;;;;;5044121;28;19929;-72
2022/10/26 11:32:23;;;;;;;;;;;17.10;92.40;;;;;;5037945;28;20027;-73
2022/10/26 11:34:53;;;;;;;;;;;17.20;92.40;;;;;;5043297;28;19935;-74
2022/10/26 11:37:23;;;;;;;;;;;17.20;92.60;;;;;;5039039;28;19935;-72
2022/10/26 11:40:01;;;;;;;;;;;17.20;92.60;;;;;;5043325;28;20485;-72
2022/10/26 11:42:30;;;;;;;;;;;17.20;92.40;;;;;;5035909;28;19929;-71
2022/10/26 11:44:59;;;;;;;;;;;17.30;92.20;;;;;;5043757;28;20408;-73
2022/10/26 11:47:33;;;;;;;;;;;17.30;92.30;;;;;;5038505;28;19933;-72
2022/10/26 11:50:03;;;;;;;;;;;17.30;92.30;;;;;;5037770;28;20356;-71
2022/10/26 11:52:34;;;;;;;;;;;17.40;92.20;;;;;;5042900;28;19933;-72
2022/10/26 11:55:03;;;;;;;;;;;17.40;92.20;;;;;;5037942;28;19933;-71
2022/10/26 11:57:31;;;;;;;;;;;17.40;92.30;;;;;;5040608;28;19943;-72
2022/10/26 12:00:00;;;;;;;;;;;17.50;92.10;;;;;;5039547;28;19933;-72
2022/10/26 12:02:28;;;;;;;;;;;17.50;92.00;;;;;;5040754;28;19928;-72
2022/10/26 12:04:57;;;;;;;;;;;17.60;92.00;;;;;;5043790;28;19936;-71
2022/10/26 12:07:26;;;;;;;;;;;17.60;92.00;;;;;;5038544;28;20323;-72
2022/10/26 12:09:54;;;;;;;;;;;17.60;91.90;;;;;;5041300;28;19929;-72
2022/10/26 12:12:23;;;;;;;;;;;17.60;91.90;;;;;;5034928;28;20050;-73
2022/10/26 12:14:55;;;;;;;;;;;17.70;91.70;;;;;;5042897;28;19959;-72
2022/10/26 12:17:24;;;;;;;;;;;17.80;91.60;;;;;;5042635;28;20308;-71
2022/10/26 12:19:55;;;;;;;;;;;17.80;91.60;;;;;;5037220;28;19940;-73
2022/10/26 12:22:25;;;;;;;;;;;17.80;91.70;;;;;;5040501;28;19928;-72
2022/10/26 12:25:05;;;;;;;;;;;17.90;91.50;;;;;;5039246;28;19932;-72
2022/10/26 12:27:32;;;;;;;;;;;17.90;91.50;;;;;;5041589;28;19936;-72
2022/10/26 12:30:15;;;;;;;;;;;17.90;91.40;;;;;;5041771;28;19929;-71
2022/10/26 12:32:53;;;;;;;;;;;17.90;91.40;;;;;;5042482;28;19971;-73
2022/10/26 12:35:31;;;;;;;;;;;17.90;91.30;;;;;;5044070;28;19928;-73
2022/10/26 12:37:59;;;;;;;;;;;18.00;91.30;;;;;;5038713;28;19940;-71
2022/10/26 12:40:39;;;;;;;;;;;18.10;91.30;;;;;;5046045;28;20368;-72
2022/10/26 12:43:24;;;;;;;;;;;18.20;90.80;;;;;;5043683;28;20021;-71
2022/10/26 12:46:06;;;;;;;;;;;18.30;90.90;;;;;;5041251;28;19936;-72
2022/10/26 12:48:39;;;;;;;;;;;18.30;90.60;;;;;;5046730;28;20393;-74
2022/10/26 12:51:21;;;;;;;;;;;18.40;90.70;;;;;;5045271;28;19936;-70
2022/10/26 12:53:54;;;;;;;;;;;18.50;90.20;;;;;;5046592;28;19928;-72
2022/10/26 12:56:24;;;;;;;;;;;18.50;90.40;;;;;;5043059;28;19933;-70
2022/10/26 12:59:05;;;;;;;;;;;18.60;90.50;;;;;;5045205;28;19929;-73
2022/10/26 13:01:47;;;;;;;;;;;18.60;90.40;;;;;;5043222;28;19935;-71
2022/10/26 13:04:25;;;;;;;;;;;18.60;90.30;;;;;;5044852;28;19947;-71
2022/10/26 13:06:58;;;;;;;;;;;18.70;89.50;;;;;;5043656;28;20357;-72
2022/10/26 13:09:28;;;;;;;;;;;18.80;89.20;;;;;;5046644;28;19935;-72
2022/10/26 13:11:56;;;;;;;;;;;18.90;88.70;;;;;;5047014;28;19932;-73
2022/10/26 13:14:23;;;;;;;;;;;19.00;88.30;;;;;;5046944;28;19929;-72
2022/10/26 13:16:50;;;;;;;;;;;19.00;87.50;;;;;;5037003;28;19937;-72
2022/10/26 13:19:24;;;;;;;;;;;19.10;87.70;;;;;;5040984;28;20338;-72
2022/10/26 13:21:51;;;;;;;;;;;19.20;87.70;;;;;;5040659;28;19925;-74
2022/10/26 13:24:19;;;;;;;;;;;19.30;86.70;;;;;;5046805;28;19935;-72
2022/10/26 13:27:00;;;;;;;;;;;19.30;86.10;;;;;;5045638;28;19932;-72
2022/10/26 13:29:30;;;;;;;;;;;19.40;86.00;;;;;;5041920;28;19925;-73
2022/10/26 13:31:57;;;;;;;;;;;19.40;86.20;;;;;;5045926;28;19924;-72
2022/10/26 13:34:26;;;;;;;;;;;19.40;85.90;;;;;;5045746;28;20401;-72
2022/10/26 13:36:55;;;;;;;;;;;19.50;86.60;;;;;;5041100;28;20556;-73
2022/10/26 13:39:24;;;;;;;;;;;19.50;85.00;;;;;;5039396;28;19925;-72
2022/10/26 13:41:51;;;;;;;;;;;19.60;85.20;;;;;;5039003;28;19939;-73
2022/10/26 13:44:20;;;;;;;;;;;19.60;85.00;;;;;;5037680;28;19925;-72
2022/10/26 13:46:51;;;;;;;;;;;19.70;84.60;;;;;;5039540;28;19932;-73
2022/10/26 13:49:21;;;;;;;;;;;19.70;84.80;;;;;;5047194;28;19936;-72
2022/10/26 13:51:49;;;;;;;;;;;19.70;84.80;;;;;;5043243;28;19932;-73
2022/10/26 13:54:19;;;;;;;;;;;19.70;85.40;;;;;;5042254;28;19925;-71
2022/10/26 13:56:55;;;;;;;;;;;19.80;85.10;;;;;;5042849;28;20301;-75
2022/10/26 13:59:22;;;;;;;;;;;19.90;84.40;;;;;;5042300;28;19931;-74
2022/10/26 14:02:04;;;;;;;;;;;19.90;84.60;;;;;;5041357;28;20027;-76
2022/10/26 14:04:31;;;;;;;;;;;19.90;85.00;;;;;;5045141;28;19932;-72
2022/10/26 14:06:58;;;;;;;;;;;19.90;84.50;;;;;;5044222;28;19929;-72
2022/10/26 14:09:24;;;;;;;;;;;19.90;84.70;;;;;;5038223;28;19931;-73
2022/10/26 14:11:52;;;;;;;;;;;19.90;84.50;;;;;;5039274;28;19921;-71
2022/10/26 14:14:20;;;;;;;;;;;19.90;84.60;;;;;;5040794;28;19953;-72
2022/10/26 14:16:48;;;;;;;;;;;20.00;84.80;;;;;;5032094;28;19925;-72
2022/10/26 14:19:20;;;;;;;;;;;20.00;84.70;;;;;;5045658;28;20293;-74
2022/10/26 14:21:48;;;;;;;;;;;20.00;84.30;;;;;;5045154;28;19924;-73
2022/10/26 14:24:20;;;;;;;;;;;19.90;84.20;;;;;;5039207;28;20344;-72
2022/10/26 14:26:47;;;;;;;;;;;19.90;83.90;;;;;;5035820;28;19929;-72